sensor_id;sensor_type;location;lat;lon;timestamp;pressure;altitude;pressure_sealevel;temperature;humidity
68871;BME280;55906;52.278;6.808;2023-01-28T00:00:36;102871.19;;;4.43;69.40
68871;BME280;55906;52.278;6.808;2023-01-28T00:03:03;102870.94;;;4.40;68.71
68871;BME280;55906;52.278;6.808;2023-01-28T00:05:30;102876.41;;;4.43;69.18
68871;BME280;55906;52.278;6.808;2023-01-28T00:07:56;102879.00;;;4.43;69.04
68871;BME280;55906;52.278;6.808;2023-01-28T00:10:24;102873.16;;;4.46;69.34
68871;BME280;55906;52.278;6.808;2023-01-28T00:12:51;102879.41;;;4.48;69.07
68871;BME280;55906;52.278;6.808;2023-01-28T00:15:17;102881.50;;;4.42;69.12
68871;BME280;55906;52.278;6.808;2023-01-28T00:17:44;102875.63;;;4.44;68.69
68871;BME280;55906;52.278;6.808;2023-01-28T00:20:11;102870.69;;;4.37;69.03
68871;BME280;55906;52.278;6.808;2023-01-28T00:22:38;102876.94;;;4.39;68.81
68871;BME280;55906;52.278;6.808;2023-01-28T00:25:04;102876.16;;;4.40;68.88
68871;BME280;55906;52.278;6.808;2023-01-28T00:27:32;102875.25;;;4.40;68.89
68871;BME280;55906;52.278;6.808;2023-01-28T00:29:59;102880.84;;;4.34;68.70
68871;BME280;55906;52.278;6.808;2023-01-28T00:32:26;102894.00;;;4.36;68.80
68871;BME280;55906;52.278;6.808;2023-01-28T00:34:52;102893.13;;;4.25;68.34
68871;BME280;55906;52.278;6.808;2023-01-28T00:37:19;102894.28;;;4.18;68.17
68871;BME280;55906;52.278;6.808;2023-01-28T00:39:46;102896.38;;;4.23;68.38
68871;BME280;55906;52.278;6.808;2023-01-28T00:42:12;102896.25;;;4.21;67.64
68871;BME280;55906;52.278;6.808;2023-01-28T00:44:41;102890.25;;;4.22;68.07
68871;BME280;55906;52.278;6.808;2023-01-28T00:47:07;102894.69;;;4.13;67.84
68871;BME280;55906;52.278;6.808;2023-01-28T00:49:34;102890.66;;;4.16;68.11
68871;BME280;55906;52.278;6.808;2023-01-28T00:52:00;102895.75;;;4.05;67.26
68871;BME280;55906;52.278;6.808;2023-01-28T00:54:27;102903.28;;;4.02;67.44
68871;BME280;55906;52.278;6.808;2023-01-28T00:56:54;102903.56;;;4.05;67.47
68871;BME280;55906;52.278;6.808;2023-01-28T00:59:20;102901.19;;;4.08;67.46
68871;BME280;55906;52.278;6.808;2023-01-28T01:01:49;102908.09;;;4.07;67.25
68871;BME280;55906;52.278;6.808;2023-01-28T01:04:15;102904.84;;;4.00;67.24
68871;BME280;55906;52.278;6.808;2023-01-28T01:06:51;102903.28;;;4.02;67.56
68871;BME280;55906;52.278;6.808;2023-01-28T01:09:17;102902.38;;;3.91;66.71
68871;BME280;55906;52.278;6.808;2023-01-28T01:11:44;102904.97;;;3.91;67.88
68871;BME280;55906;52.278;6.808;2023-01-28T01:14:10;102904.97;;;3.91;67.64
68871;BME280;55906;52.278;6.808;2023-01-28T01:16:37;102907.59;;;3.91;67.01
68871;BME280;55906;52.278;6.808;2023-01-28T01:19:05;102897.53;;;3.85;66.65
68871;BME280;55906;52.278;6.808;2023-01-28T01:21:33;102901.47;;;3.91;67.20
68871;BME280;55906;52.278;6.808;2023-01-28T01:24:00;102902.22;;;3.90;67.03
68871;BME280;55906;52.278;6.808;2023-01-28T01:26:26;102903.66;;;3.86;66.58
68871;BME280;55906;52.278;6.808;2023-01-28T01:28:53;102911.59;;;3.88;67.02
68871;BME280;55906;52.278;6.808;2023-01-28T01:31:21;102913.72;;;3.92;66.72
68871;BME280;55906;52.278;6.808;2023-01-28T01:33:49;102901.16;;;3.88;66.35
68871;BME280;55906;52.278;6.808;2023-01-28T01:36:18;102912.50;;;3.88;66.66
68871;BME280;55906;52.278;6.808;2023-01-28T01:38:46;102914.97;;;3.86;66.94
68871;BME280;55906;52.278;6.808;2023-01-28T01:41:22;102916.00;;;3.89;66.99
68871;BME280;55906;52.278;6.808;2023-01-28T01:43:50;102909.75;;;3.86;66.96
68871;BME280;55906;52.278;6.808;2023-01-28T01:46:20;102920.69;;;3.82;66.89
68871;BME280;55906;52.278;6.808;2023-01-28T01:48:48;102915.34;;;3.81;66.57
68871;BME280;55906;52.278;6.808;2023-01-28T01:51:20;102910.03;;;3.79;66.61
68871;BME280;55906;52.278;6.808;2023-01-28T01:53:49;102909.09;;;3.79;66.76
68871;BME280;55906;52.278;6.808;2023-01-28T01:56:20;102908.97;;;3.77;66.48
68871;BME280;55906;52.278;6.808;2023-01-28T01:58:52;102914.31;;;3.79;66.82
68871;BME280;55906;52.278;6.808;2023-01-28T02:01:22;102912.63;;;3.79;66.64
68871;BME280;55906;52.278;6.808;2023-01-28T02:03:54;102919.38;;;3.77;67.07
68871;BME280;55906;52.278;6.808;2023-01-28T02:06:24;102918.22;;;3.74;66.31
68871;BME280;55906;52.278;6.808;2023-01-28T02:08:53;102920.41;;;3.69;66.89
68871;BME280;55906;52.278;6.808;2023-01-28T02:11:21;102923.03;;;3.69;67.02
68871;BME280;55906;52.278;6.808;2023-01-28T02:13:53;102926.91;;;3.64;65.60
68871;BME280;55906;52.278;6.808;2023-01-28T02:16:21;102931.22;;;3.64;66.52
68871;BME280;55906;52.278;6.808;2023-01-28T02:18:49;102932.22;;;3.56;66.94
68871;BME280;55906;52.278;6.808;2023-01-28T02:24:18;102933.94;;;3.55;66.04
68871;BME280;55906;52.278;6.808;2023-01-28T02:27:01;102934.97;;;3.57;66.02
68871;BME280;55906;52.278;6.808;2023-01-28T02:29:40;102941.09;;;3.58;66.14
68871;BME280;55906;52.278;6.808;2023-01-28T02:32:13;102941.34;;;3.61;66.46
68871;BME280;55906;52.278;6.808;2023-01-28T02:34:46;102940.94;;;3.56;65.91
68871;BME280;55906;52.278;6.808;2023-01-28T02:37:20;102943.28;;;3.53;66.68
68871;BME280;55906;52.278;6.808;2023-01-28T02:39:51;102936.75;;;3.48;65.26
68871;BME280;55906;52.278;6.808;2023-01-28T02:42:22;102935.84;;;3.47;66.27
68871;BME280;55906;52.278;6.808;2023-01-28T02:44:51;102936.91;;;3.49;65.87
68871;BME280;55906;52.278;6.808;2023-01-28T02:47:18;102941.63;;;3.25;65.03
68871;BME280;55906;52.278;6.808;2023-01-28T02:50:05;102944.28;;;3.35;66.09
68871;BME280;55906;52.278;6.808;2023-01-28T02:52:44;102936.47;;;3.35;65.47
68871;BME280;55906;52.278;6.808;2023-01-28T02:55:38;102933.56;;;3.21;65.59
68871;BME280;55906;52.278;6.808;2023-01-28T02:58:15;102932.69;;;3.31;66.06
68871;BME280;55906;52.278;6.808;2023-01-28T03:00:49;102930.34;;;3.34;66.37
68871;BME280;55906;52.278;6.808;2023-01-28T03:03:21;102923.47;;;3.35;65.87
68871;BME280;55906;52.278;6.808;2023-01-28T03:05:54;102921.88;;;3.27;65.51
68871;BME280;55906;52.278;6.808;2023-01-28T03:08:35;102925.66;;;3.30;66.47
68871;BME280;55906;52.278;6.808;2023-01-28T03:11:22;102921.88;;;3.27;66.09
68871;BME280;55906;52.278;6.808;2023-01-28T03:14:07;102922.38;;;3.22;65.41
68871;BME280;55906;52.278;6.808;2023-01-28T03:16:56;102930.19;;;3.22;64.82
68871;BME280;55906;52.278;6.808;2023-01-28T03:19:42;102923.31;;;3.23;65.46
68871;BME280;55906;52.278;6.808;2023-01-28T03:22:28;102927.19;;;3.18;64.49
68871;BME280;55906;52.278;6.808;2023-01-28T03:25:17;102922.25;;;3.21;65.11
68871;BME280;55906;52.278;6.808;2023-01-28T03:28:06;102915.22;;;3.20;65.24
68871;BME280;55906;52.278;6.808;2023-01-28T03:30:56;102919.91;;;3.24;65.30
68871;BME280;55906;52.278;6.808;2023-01-28T03:33:43;102925.25;;;3.26;65.33
68871;BME280;55906;52.278;6.808;2023-01-28T03:36:28;102923.81;;;3.19;65.68
68871;BME280;55906;52.278;6.808;2023-01-28T03:39:20;102924.84;;;3.21;65.91
68871;BME280;55906;52.278;6.808;2023-01-28T03:42:02;102929.28;;;3.22;65.07
68871;BME280;55906;52.278;6.808;2023-01-28T03:44:29;102919.00;;;3.24;65.72
68871;BME280;55906;52.278;6.808;2023-01-28T03:47:13;102918.22;;;3.25;65.96
68871;BME280;55906;52.278;6.808;2023-01-28T03:49:43;102915.00;;;3.27;65.68
68871;BME280;55906;52.278;6.808;2023-01-28T03:52:11;102923.16;;;3.21;65.70
68871;BME280;55906;52.278;6.808;2023-01-28T03:54:38;102921.34;;;3.20;65.30
68871;BME280;55906;52.278;6.808;2023-01-28T03:57:05;102933.44;;;3.20;65.52
68871;BME280;55906;52.278;6.808;2023-01-28T03:59:32;102937.06;;;3.22;66.11
68871;BME280;55906;52.278;6.808;2023-01-28T04:01:59;102942.41;;;3.24;66.32
68871;BME280;55906;52.278;6.808;2023-01-28T04:04:27;102936.44;;;3.25;65.15
68871;BME280;55906;52.278;6.808;2023-01-28T04:06:56;102944.25;;;3.25;65.14
68871;BME280;55906;52.278;6.808;2023-01-28T04:09:23;102939.03;;;3.25;65.72
68871;BME280;55906;52.278;6.808;2023-01-28T04:11:50;102940.88;;;3.26;65.32
68871;BME280;55906;52.278;6.808;2023-01-28T04:14:17;102932.41;;;3.28;65.79
68871;BME280;55906;52.278;6.808;2023-01-28T04:16:44;102936.44;;;3.25;65.33
68871;BME280;55906;52.278;6.808;2023-01-28T04:19:11;102940.59;;;3.22;65.46
68871;BME280;55906;52.278;6.808;2023-01-28T04:21:38;102941.63;;;3.25;65.93
68871;BME280;55906;52.278;6.808;2023-01-28T04:24:06;102948.16;;;3.30;65.89
68871;BME280;55906;52.278;6.808;2023-01-28T04:26:33;102944.78;;;3.31;65.54
68871;BME280;55906;52.278;6.808;2023-01-28T04:29:00;102947.34;;;3.20;65.72
68871;BME280;55906;52.278;6.808;2023-01-28T04:31:26;102944.19;;;3.14;65.35
68871;BME280;55906;52.278;6.808;2023-01-28T04:33:53;102947.06;;;3.17;65.75
68871;BME280;55906;52.278;6.808;2023-01-28T04:36:19;102949.53;;;3.16;65.68
68871;BME280;55906;52.278;6.808;2023-01-28T04:38:46;102947.84;;;3.16;66.05
68871;BME280;55906;52.278;6.808;2023-01-28T04:41:14;102945.38;;;3.18;65.49
68871;BME280;55906;52.278;6.808;2023-01-28T04:43:40;102952.50;;;3.10;65.67
68871;BME280;55906;52.278;6.808;2023-01-28T04:46:08;102951.72;;;3.11;65.53
68871;BME280;55906;52.278;6.808;2023-01-28T04:48:35;102946.81;;;3.14;66.20
68871;BME280;55906;52.278;6.808;2023-01-28T04:51:03;102961.75;;;3.17;65.74
68871;BME280;55906;52.278;6.808;2023-01-28T04:53:30;102953.31;;;3.19;65.96
68871;BME280;55906;52.278;6.808;2023-01-28T04:55:57;102955.00;;;3.19;65.50
68871;BME280;55906;52.278;6.808;2023-01-28T04:58:25;102954.31;;;3.11;65.25
68871;BME280;55906;52.278;6.808;2023-01-28T05:00:54;102956.94;;;3.11;66.09
68871;BME280;55906;52.278;6.808;2023-01-28T05:03:21;102960.56;;;3.13;66.40
68871;BME280;55906;52.278;6.808;2023-01-28T05:05:48;102961.75;;;3.17;66.16
68871;BME280;55906;52.278;6.808;2023-01-28T05:08:15;102955.66;;;3.16;65.70
68871;BME280;55906;52.278;6.808;2023-01-28T05:10:42;102959.16;;;3.17;65.69
68871;BME280;55906;52.278;6.808;2023-01-28T05:13:08;102957.34;;;3.16;66.16
68871;BME280;55906;52.278;6.808;2023-01-28T05:15:36;102949.00;;;3.10;66.08
68871;BME280;55906;52.278;6.808;2023-01-28T05:18:03;102949.13;;;3.11;65.83
68871;BME280;55906;52.278;6.808;2023-01-28T05:20:30;102946.53;;;3.11;65.86
68871;BME280;55906;52.278;6.808;2023-01-28T05:22:56;102949.25;;;3.13;66.29
68871;BME280;55906;52.278;6.808;2023-01-28T05:25:23;102952.00;;;3.14;65.86
68871;BME280;55906;52.278;6.808;2023-01-28T05:27:51;102954.31;;;3.11;66.14
68871;BME280;55906;52.278;6.808;2023-01-28T05:30:19;102949.91;;;3.10;65.60
68871;BME280;55906;52.278;6.808;2023-01-28T05:32:47;102944.06;;;3.13;65.34
68871;BME280;55906;52.278;6.808;2023-01-28T05:35:14;102944.69;;;3.10;65.55
68871;BME280;55906;52.278;6.808;2023-01-28T05:37:40;102938.88;;;3.13;65.73
68871;BME280;55906;52.278;6.808;2023-01-28T05:40:08;102930.41;;;3.15;66.39
68871;BME280;55906;52.278;6.808;2023-01-28T05:42:35;102934.84;;;3.16;65.80
68871;BME280;55906;52.278;6.808;2023-01-28T05:45:02;102940.97;;;3.17;65.69
68871;BME280;55906;52.278;6.808;2023-01-28T05:47:28;102932.50;;;3.19;65.79
68871;BME280;55906;52.278;6.808;2023-01-28T05:49:56;102935.25;;;3.21;66.50
68871;BME280;55906;52.278;6.808;2023-01-28T05:52:23;102933.56;;;3.21;65.82
68871;BME280;55906;52.278;6.808;2023-01-28T05:54:49;102926.53;;;3.20;65.89
68871;BME280;55906;52.278;6.808;2023-01-28T05:57:16;102928.09;;;3.18;65.64
68871;BME280;55906;52.278;6.808;2023-01-28T05:59:43;102923.81;;;3.19;65.66
68871;BME280;55906;52.278;6.808;2023-01-28T06:02:09;102927.81;;;3.15;65.72
68871;BME280;55906;52.278;6.808;2023-01-28T06:04:36;102924.72;;;3.19;66.46
68871;BME280;55906;52.278;6.808;2023-01-28T06:07:04;102923.66;;;3.17;66.27
68871;BME280;55906;52.278;6.808;2023-01-28T06:09:31;102922.63;;;3.15;66.54
68871;BME280;55906;52.278;6.808;2023-01-28T06:11:58;102926.91;;;3.15;66.88
68871;BME280;55906;52.278;6.808;2023-01-28T06:14:24;102923.63;;;3.07;65.83
68871;BME280;55906;52.278;6.808;2023-01-28T06:16:51;102923.91;;;3.10;66.13
68871;BME280;55906;52.278;6.808;2023-01-28T06:19:17;102919.31;;;2.98;66.11
68871;BME280;55906;52.278;6.808;2023-01-28T06:21:44;102933.06;;;2.97;66.64
68871;BME280;55906;52.278;6.808;2023-01-28T06:24:12;102928.66;;;2.96;66.90
68871;BME280;55906;52.278;6.808;2023-01-28T06:26:39;102930.56;;;2.88;65.50
68871;BME280;55906;52.278;6.808;2023-01-28T06:29:05;102939.28;;;2.88;66.75
68871;BME280;55906;52.278;6.808;2023-01-28T06:31:32;102947.06;;;2.88;66.17
68871;BME280;55906;52.278;6.808;2023-01-28T06:33:58;102940.03;;;2.87;65.98
68871;BME280;55906;52.278;6.808;2023-01-28T06:36:25;102944.47;;;2.88;65.64
68871;BME280;55906;52.278;6.808;2023-01-28T06:38:52;102944.69;;;2.81;64.64
68871;BME280;55906;52.278;6.808;2023-01-28T06:41:20;102944.28;;;2.77;65.91
68871;BME280;55906;52.278;6.808;2023-01-28T06:43:46;102951.56;;;2.81;66.06
68871;BME280;55906;52.278;6.808;2023-01-28T06:46:13;102943.16;;;2.83;65.51
68871;BME280;55906;52.278;6.808;2023-01-28T06:48:39;102952.72;;;2.74;64.90
68871;BME280;55906;52.278;6.808;2023-01-28T06:51:06;102958.03;;;2.76;66.07
68871;BME280;55906;52.278;6.808;2023-01-28T06:53:33;102947.16;;;2.80;66.01
68871;BME280;55906;52.278;6.808;2023-01-28T06:55:59;102949.63;;;2.78;65.56
68871;BME280;55906;52.278;6.808;2023-01-28T06:58:27;102950.81;;;2.82;65.45
68871;BME280;55906;52.278;6.808;2023-01-28T07:00:54;102950.16;;;2.84;66.80
68871;BME280;55906;52.278;6.808;2023-01-28T07:03:20;102942.38;;;2.84;66.17
68871;BME280;55906;52.278;6.808;2023-01-28T07:05:47;102958.09;;;2.86;65.82
68871;BME280;55906;52.278;6.808;2023-01-28T07:08:14;102956.56;;;2.88;66.45
68871;BME280;55906;52.278;6.808;2023-01-28T07:10:40;102956.56;;;2.88;66.46
68871;BME280;55906;52.278;6.808;2023-01-28T07:13:07;102955.78;;;2.89;66.40
68871;BME280;55906;52.278;6.808;2023-01-28T07:15:35;102966.44;;;2.92;65.59
68871;BME280;55906;52.278;6.808;2023-01-28T07:18:02;102970.09;;;2.94;65.83
68871;BME280;55906;52.278;6.808;2023-01-28T07:20:30;102970.38;;;2.97;65.94
68871;BME280;55906;52.278;6.808;2023-01-28T07:22:56;102971.00;;;2.95;66.55
68871;BME280;55906;52.278;6.808;2023-01-28T07:25:23;102972.97;;;2.97;65.63
68871;BME280;55906;52.278;6.808;2023-01-28T07:27:51;102968.06;;;3.00;66.03
68871;BME280;55906;52.278;6.808;2023-01-28T07:30:18;102966.78;;;3.05;66.08
68871;BME280;55906;52.278;6.808;2023-01-28T07:32:51;102971.47;;;3.09;65.78
68871;BME280;55906;52.278;6.808;2023-01-28T07:35:18;102974.06;;;3.09;66.29
68871;BME280;55906;52.278;6.808;2023-01-28T07:37:50;102969.28;;;3.14;66.03
68871;BME280;55906;52.278;6.808;2023-01-28T07:40:17;102977.22;;;3.15;66.26
68871;BME280;55906;52.278;6.808;2023-01-28T07:42:44;102989.59;;;3.18;65.87
68871;BME280;55906;52.278;6.808;2023-01-28T07:45:10;102993.88;;;3.17;65.86
68871;BME280;55906;52.278;6.808;2023-01-28T07:47:37;103005.47;;;3.21;66.49
68871;BME280;55906;52.278;6.808;2023-01-28T07:50:06;103000.53;;;3.24;65.61
68871;BME280;55906;52.278;6.808;2023-01-28T07:52:33;103009.53;;;3.28;65.83
68871;BME280;55906;52.278;6.808;2023-01-28T07:55:03;103006.16;;;3.29;66.10
68871;BME280;55906;52.278;6.808;2023-01-28T07:57:30;103005.38;;;3.30;65.92
68871;BME280;55906;52.278;6.808;2023-01-28T07:59:57;103015.78;;;3.30;66.22
68871;BME280;55906;52.278;6.808;2023-01-28T08:02:23;103027.22;;;3.32;66.03
68871;BME280;55906;52.278;6.808;2023-01-28T08:04:50;103020.47;;;3.34;66.27
68871;BME280;55906;52.278;6.808;2023-01-28T08:07:18;103028.56;;;3.37;66.10
68871;BME280;55906;52.278;6.808;2023-01-28T08:09:45;103027.78;;;3.38;66.01
68871;BME280;55906;52.278;6.808;2023-01-28T08:12:11;103032.22;;;3.39;66.23
68871;BME280;55906;52.278;6.808;2023-01-28T08:14:38;103049.09;;;3.34;65.50
68871;BME280;55906;52.278;6.808;2023-01-28T08:17:04;103048.03;;;3.32;66.47
68871;BME280;55906;52.278;6.808;2023-01-28T08:19:31;103043.47;;;3.29;66.44
68871;BME280;55906;52.278;6.808;2023-01-28T08:21:58;103035.81;;;3.31;66.04
68871;BME280;55906;52.278;6.808;2023-01-28T08:24:26;103048.69;;;3.29;66.20
68871;BME280;55906;52.278;6.808;2023-01-28T08:26:52;103049.69;;;3.21;66.82
68871;BME280;55906;52.278;6.808;2023-01-28T08:29:19;103047.06;;;3.21;66.28
68871;BME280;55906;52.278;6.808;2023-01-28T08:31:46;103042.72;;;3.11;66.61
68871;BME280;55906;52.278;6.808;2023-01-28T08:34:13;103045.25;;;3.20;66.83
68871;BME280;55906;52.278;6.808;2023-01-28T08:36:39;103038.34;;;3.20;66.45
68871;BME280;55906;52.278;6.808;2023-01-28T08:39:06;103046.94;;;3.19;66.43
68871;BME280;55906;52.278;6.808;2023-01-28T08:41:34;103039.13;;;3.19;65.74
68871;BME280;55906;52.278;6.808;2023-01-28T08:44:00;103042.16;;;3.24;65.52
68871;BME280;55906;52.278;6.808;2023-01-28T08:46:27;103050.44;;;3.20;65.93
68871;BME280;55906;52.278;6.808;2023-01-28T08:48:54;103047.44;;;3.15;66.41
68871;BME280;55906;52.278;6.808;2023-01-28T08:51:21;103045.59;;;3.14;65.96
68871;BME280;55906;52.278;6.808;2023-01-28T08:53:47;103039.50;;;3.14;65.04
68871;BME280;55906;52.278;6.808;2023-01-28T08:56:14;103041.69;;;3.09;65.40
68871;BME280;55906;52.278;6.808;2023-01-28T08:58:42;103039.34;;;3.12;65.84
68871;BME280;55906;52.278;6.808;2023-01-28T09:01:09;103044.69;;;3.14;66.25
68871;BME280;55906;52.278;6.808;2023-01-28T09:03:36;103058.38;;;3.21;66.30
68871;BME280;55906;52.278;6.808;2023-01-28T09:06:03;103057.66;;;3.33;65.77
68871;BME280;55906;52.278;6.808;2023-01-28T09:08:30;103062.59;;;3.30;66.16
68871;BME280;55906;52.278;6.808;2023-01-28T09:10:58;103066.78;;;3.38;65.05
68871;BME280;55906;52.278;6.808;2023-01-28T09:13:25;103052.69;;;3.26;64.99
68871;BME280;55906;52.278;6.808;2023-01-28T09:15:53;103055.38;;;3.46;65.40
68871;BME280;55906;52.278;6.808;2023-01-28T09:18:20;103058.03;;;3.56;65.49
68871;BME280;55906;52.278;6.808;2023-01-28T09:20:46;103058.84;;;3.65;65.41
68871;BME280;55906;52.278;6.808;2023-01-28T09:23:13;103066.44;;;3.72;64.94
68871;BME280;55906;52.278;6.808;2023-01-28T09:25:40;103079.47;;;3.82;64.80
68871;BME280;55906;52.278;6.808;2023-01-28T09:28:07;103084.03;;;3.85;64.00
68871;BME280;55906;52.278;6.808;2023-01-28T09:30:33;103086.75;;;3.76;63.45
68871;BME280;55906;52.278;6.808;2023-01-28T09:33:02;103094.81;;;3.79;63.31
68871;BME280;55906;52.278;6.808;2023-01-28T09:35:28;103101.22;;;3.83;63.83
68871;BME280;55906;52.278;6.808;2023-01-28T09:37:58;103101.16;;;3.92;63.67
68871;BME280;55906;52.278;6.808;2023-01-28T09:40:31;103099.88;;;3.97;63.64
68871;BME280;55906;52.278;6.808;2023-01-28T09:43:13;103094.16;;;4.01;63.44
68871;BME280;55906;52.278;6.808;2023-01-28T09:45:46;103093.38;;;4.02;64.14
68871;BME280;55906;52.278;6.808;2023-01-28T09:48:16;103096.25;;;4.05;63.50
68871;BME280;55906;52.278;6.808;2023-01-28T09:50:47;103108.38;;;4.14;63.34
68871;BME280;55906;52.278;6.808;2023-01-28T09:53:18;103102.28;;;4.24;63.25
68871;BME280;55906;52.278;6.808;2023-01-28T09:55:48;103109.47;;;4.37;62.58
68871;BME280;55906;52.278;6.808;2023-01-28T09:58:16;103107.78;;;4.47;63.04
68871;BME280;55906;52.278;6.808;2023-01-28T10:00:51;103114.31;;;4.63;62.24
68871;BME280;55906;52.278;6.808;2023-01-28T10:03:31;103106.25;;;4.70;61.01
68871;BME280;55906;52.278;6.808;2023-01-28T10:06:10;103108.34;;;4.74;60.69
68871;BME280;55906;52.278;6.808;2023-01-28T10:08:59;103089.16;;;4.83;61.19
68871;BME280;55906;52.278;6.808;2023-01-28T10:11:46;103092.03;;;4.97;60.95
68871;BME280;55906;52.278;6.808;2023-01-28T10:14:24;103108.84;;;5.21;61.54
68871;BME280;55906;52.278;6.808;2023-01-28T10:16:59;103108.19;;;5.33;60.35
68871;BME280;55906;52.278;6.808;2023-01-28T10:19:34;103106.44;;;5.44;59.69
68871;BME280;55906;52.278;6.808;2023-01-28T10:22:06;103101.06;;;5.53;60.83
68871;BME280;55906;52.278;6.808;2023-01-28T10:24:37;103097.69;;;5.54;60.06
68871;BME280;55906;52.278;6.808;2023-01-28T10:27:10;103086.63;;;5.46;59.48
68871;BME280;55906;52.278;6.808;2023-01-28T10:29:39;103089.75;;;5.42;59.82
68871;BME280;55906;52.278;6.808;2023-01-28T10:32:16;103088.84;;;5.41;59.70
68871;BME280;55906;52.278;6.808;2023-01-28T10:34:48;103087.03;;;6.26;59.31
68871;BME280;55906;52.278;6.808;2023-01-28T10:37:17;103072.19;;;7.39;56.69
68871;BME280;55906;52.278;6.808;2023-01-28T10:39:44;103067.81;;;7.98;52.65
68871;BME280;55906;52.278;6.808;2023-01-28T10:42:21;103060.69;;;8.70;50.91
68871;BME280;55906;52.278;6.808;2023-01-28T10:44:52;103048.25;;;9.72;51.10
68871;BME280;55906;52.278;6.808;2023-01-28T10:47:28;103040.81;;;10.62;46.90
68871;BME280;55906;52.278;6.808;2023-01-28T10:49:57;103047.19;;;11.24;45.61
68871;BME280;55906;52.278;6.808;2023-01-28T10:52:25;103037.28;;;11.66;47.91
68871;BME280;55906;52.278;6.808;2023-01-28T10:54:59;103027.50;;;12.43;46.68
68871;BME280;55906;52.278;6.808;2023-01-28T10:57:25;103033.69;;;12.94;46.11
68871;BME280;55906;52.278;6.808;2023-01-28T10:59:53;103024.16;;;13.67;46.52
68871;BME280;55906;52.278;6.808;2023-01-28T11:02:25;103004.72;;;13.84;45.51
68871;BME280;55906;52.278;6.808;2023-01-28T11:05:02;102998.16;;;13.95;43.07
68871;BME280;55906;52.278;6.808;2023-01-28T11:07:29;103001.72;;;14.15;46.53
68871;BME280;55906;52.278;6.808;2023-01-28T11:09:56;102998.84;;;14.48;45.25
68871;BME280;55906;52.278;6.808;2023-01-28T11:12:24;102998.72;;;14.27;45.14
68871;BME280;55906;52.278;6.808;2023-01-28T11:14:55;102992.34;;;14.41;43.79
68871;BME280;55906;52.278;6.808;2023-01-28T11:17:23;102996.56;;;14.18;42.56
68871;BME280;55906;52.278;6.808;2023-01-28T11:19:50;102997.34;;;13.59;41.45
68871;BME280;55906;52.278;6.808;2023-01-28T11:22:24;102976.41;;;13.64;39.54
68871;BME280;55906;52.278;6.808;2023-01-28T11:24:53;102955.84;;;13.95;39.99
68871;BME280;55906;52.278;6.808;2023-01-28T11:27:26;102938.56;;;14.42;36.26
68871;BME280;55906;52.278;6.808;2023-01-28T11:29:56;102914.81;;;14.64;37.11
68871;BME280;55906;52.278;6.808;2023-01-28T11:32:27;102917.75;;;14.93;38.16
68871;BME280;55906;52.278;6.808;2023-01-28T11:34:55;102914.44;;;14.55;36.43
68871;BME280;55906;52.278;6.808;2023-01-28T11:37:26;102924.00;;;15.16;36.81
68871;BME280;55906;52.278;6.808;2023-01-28T11:40:15;102897.06;;;15.05;35.15
68871;BME280;55906;52.278;6.808;2023-01-28T11:42:45;102911.66;;;15.16;36.35
68871;BME280;55906;52.278;6.808;2023-01-28T11:45:15;102909.47;;;15.28;34.97
68871;BME280;55906;52.278;6.808;2023-01-28T11:47:59;102900.25;;;15.86;33.77
68871;BME280;55906;52.278;6.808;2023-01-28T11:50:38;102904.81;;;16.14;33.89
68871;BME280;55906;52.278;6.808;2023-01-28T11:56:25;102909.72;;;16.03;30.81
68871;BME280;55906;52.278;6.808;2023-01-28T11:59:05;102900.47;;;16.41;33.37
68871;BME280;55906;52.278;6.808;2023-01-28T12:01:42;102904.72;;;16.36;31.21
68871;BME280;55906;52.278;6.808;2023-01-28T12:04:22;102913.00;;;15.96;32.41
68871;BME280;55906;52.278;6.808;2023-01-28T12:07:07;102903.50;;;16.26;31.52
68871;BME280;55906;52.278;6.808;2023-01-28T12:09:43;102910.47;;;16.74;32.88
68871;BME280;55906;52.278;6.808;2023-01-28T12:12:23;102926.81;;;16.86;31.10
68871;BME280;55906;52.278;6.808;2023-01-28T12:15:15;102920.03;;;17.21;31.41
68871;BME280;55906;52.278;6.808;2023-01-28T12:17:57;102924.25;;;16.63;32.81
68871;BME280;55906;52.278;6.808;2023-01-28T12:20:32;102925.34;;;16.94;33.09
68871;BME280;55906;52.278;6.808;2023-01-28T12:23:21;102918.84;;;17.40;31.55
68871;BME280;55906;52.278;6.808;2023-01-28T12:26:01;102919.41;;;17.88;31.12
68871;BME280;55906;52.278;6.808;2023-01-28T12:28:41;102921.91;;;18.13;31.83
68871;BME280;55906;52.278;6.808;2023-01-28T12:31:31;102908.63;;;18.15;30.76
68871;BME280;55906;52.278;6.808;2023-01-28T12:34:21;102905.41;;;18.25;31.43
68871;BME280;55906;52.278;6.808;2023-01-28T12:36:55;102905.97;;;18.15;30.19
68871;BME280;55906;52.278;6.808;2023-01-28T12:39:35;102912.75;;;18.67;30.57
68871;BME280;55906;52.278;6.808;2023-01-28T12:42:09;102907.88;;;18.85;29.87
68871;BME280;55906;52.278;6.808;2023-01-28T12:44:43;102905.31;;;19.27;30.27
68871;BME280;55906;52.278;6.808;2023-01-28T12:47:16;102910.16;;;19.83;28.90
68871;BME280;55906;52.278;6.808;2023-01-28T12:49:48;102903.41;;;20.01;29.90
68871;BME280;55906;52.278;6.808;2023-01-28T12:52:19;102904.25;;;19.57;28.42
68871;BME280;55906;52.278;6.808;2023-01-28T12:54:54;102913.56;;;19.75;29.90
68871;BME280;55906;52.278;6.808;2023-01-28T12:57:26;102908.47;;;19.48;30.43
68871;BME280;55906;52.278;6.808;2023-01-28T13:00:04;102914.47;;;19.01;27.72
68871;BME280;55906;52.278;6.808;2023-01-28T13:02:36;102905.84;;;18.10;29.53
68871;BME280;55906;52.278;6.808;2023-01-28T13:05:08;102901.22;;;18.03;31.18
68871;BME280;55906;52.278;6.808;2023-01-28T13:07:39;102892.41;;;17.74;30.33
68871;BME280;55906;52.278;6.808;2023-01-28T13:10:12;102891.88;;;17.57;30.13
68871;BME280;55906;52.278;6.808;2023-01-28T13:12:43;102873.56;;;17.10;31.50
68871;BME280;55906;52.278;6.808;2023-01-28T13:15:14;102870.84;;;16.56;30.89
68871;BME280;55906;52.278;6.808;2023-01-28T13:17:53;102867.78;;;15.69;31.36
68871;BME280;55906;52.278;6.808;2023-01-28T13:20:30;102855.47;;;15.71;31.26